sensor_id;sensor_type;location;lat;lon;timestamp;pressure;altitude;pressure_sealevel;temperature
81399;BMP280;70853;50.074;10.224;2023-12-14T00:00:27;97377.97;;;4.85
81399;BMP280;70853;50.074;10.224;2023-12-14T00:02:53;97380.91;;;4.81
81399;BMP280;70853;50.074;10.224;2023-12-14T00:05:19;97384.78;;;4.80
81399;BMP280;70853;50.074;10.224;2023-12-14T00:07:45;97390.06;;;4.80
81399;BMP280;70853;50.074;10.224;2023-12-14T00:10:11;97393.81;;;4.85
81399;BMP280;70853;50.074;10.224;2023-12-14T00:12:38;97397.69;;;4.84
81399;BMP280;70853;50.074;10.224;2023-12-14T00:15:04;97398.78;;;4.75
81399;BMP280;70853;50.074;10.224;2023-12-14T00:17:29;97395.13;;;4.78
81399;BMP280;70853;50.074;10.224;2023-12-14T00:19:55;97402.97;;;4.84
81399;BMP280;70853;50.074;10.224;2023-12-14T00:22:21;97397.38;;;4.87
81399;BMP280;70853;50.074;10.224;2023-12-14T00:24:47;97404.66;;;4.94
81399;BMP280;70853;50.074;10.224;2023-12-14T00:27:13;97400.44;;;4.91
81399;BMP280;70853;50.074;10.224;2023-12-14T00:29:38;97390.69;;;4.86
81399;BMP280;70853;50.074;10.224;2023-12-14T00:32:04;97414.84;;;5.04
81399;BMP280;70853;50.074;10.224;2023-12-14T00:34:30;97415.84;;;5.01
81399;BMP280;70853;50.074;10.224;2023-12-14T00:36:56;97424.50;;;5.01
81399;BMP280;70853;50.074;10.224;2023-12-14T00:39:21;97401.25;;;4.73
81399;BMP280;70853;50.074;10.224;2023-12-14T00:41:47;97421.75;;;4.80
81399;BMP280;70853;50.074;10.224;2023-12-14T00:44:13;97418.31;;;4.72
81399;BMP280;70853;50.074;10.224;2023-12-14T00:46:38;97413.22;;;4.61
81399;BMP280;70853;50.074;10.224;2023-12-14T00:49:04;97415.84;;;4.74
81399;BMP280;70853;50.074;10.224;2023-12-14T00:51:30;97417.38;;;4.83
81399;BMP280;70853;50.074;10.224;2023-12-14T00:53:55;97419.63;;;4.79
81399;BMP280;70853;50.074;10.224;2023-12-14T00:56:21;97417.31;;;4.88
81399;BMP280;70853;50.074;10.224;2023-12-14T00:58:46;97427.25;;;4.82
81399;BMP280;70853;50.074;10.224;2023-12-14T01:01:12;97430.78;;;4.72
81399;BMP280;70853;50.074;10.224;2023-12-14T01:03:37;97432.94;;;4.73
81399;BMP280;70853;50.074;10.224;2023-12-14T01:06:03;97436.75;;;4.59
81399;BMP280;70853;50.074;10.224;2023-12-14T01:08:29;97447.44;;;4.53
81399;BMP280;70853;50.074;10.224;2023-12-14T01:10:54;97445.28;;;4.52
81399;BMP280;70853;50.074;10.224;2023-12-14T01:13:20;97458.78;;;4.48
81399;BMP280;70853;50.074;10.224;2023-12-14T01:15:45;97463.84;;;4.46
81399;BMP280;70853;50.074;10.224;2023-12-14T01:18:11;97447.72;;;4.37
81399;BMP280;70853;50.074;10.224;2023-12-14T01:20:36;97470.84;;;4.44
81399;BMP280;70853;50.074;10.224;2023-12-14T01:23:02;97472.97;;;4.32
81399;BMP280;70853;50.074;10.224;2023-12-14T01:25:28;97479.69;;;4.33
81399;BMP280;70853;50.074;10.224;2023-12-14T01:27:54;97481.88;;;4.29
81399;BMP280;70853;50.074;10.224;2023-12-14T01:30:19;97490.16;;;4.20
81399;BMP280;70853;50.074;10.224;2023-12-14T01:32:45;97499.22;;;4.25
81399;BMP280;70853;50.074;10.224;2023-12-14T01:35:10;97510.00;;;4.27
81399;BMP280;70853;50.074;10.224;2023-12-14T01:37:36;97510.06;;;4.21
81399;BMP280;70853;50.074;10.224;2023-12-14T01:40:02;97500.72;;;4.20
81399;BMP280;70853;50.074;10.224;2023-12-14T01:42:28;97511.34;;;4.33
81399;BMP280;70853;50.074;10.224;2023-12-14T01:44:53;97513.13;;;4.25
81399;BMP280;70853;50.074;10.224;2023-12-14T01:47:19;97519.78;;;4.32
81399;BMP280;70853;50.074;10.224;2023-12-14T01:49:44;97525.84;;;4.27
81399;BMP280;70853;50.074;10.224;2023-12-14T01:52:10;97523.91;;;4.27
81399;BMP280;70853;50.074;10.224;2023-12-14T01:54:35;97528.09;;;4.17
81399;BMP280;70853;50.074;10.224;2023-12-14T01:57:01;97533.09;;;4.20
81399;BMP280;70853;50.074;10.224;2023-12-14T01:59:26;97534.53;;;4.21
81399;BMP280;70853;50.074;10.224;2023-12-14T02:01:54;97539.06;;;4.08
81399;BMP280;70853;50.074;10.224;2023-12-14T02:04:23;97536.81;;;4.12
81399;BMP280;70853;50.074;10.224;2023-12-14T02:06:49;97548.50;;;4.16
81399;BMP280;70853;50.074;10.224;2023-12-14T02:09:14;97548.31;;;4.14
81399;BMP280;70853;50.074;10.224;2023-12-14T02:11:40;97553.28;;;4.18
81399;BMP280;70853;50.074;10.224;2023-12-14T02:14:08;97557.66;;;4.15
81399;BMP280;70853;50.074;10.224;2023-12-14T02:16:34;97566.34;;;4.10
81399;BMP280;70853;50.074;10.224;2023-12-14T02:19:01;97565.25;;;4.19
81399;BMP280;70853;50.074;10.224;2023-12-14T02:21:27;97563.84;;;3.99
81399;BMP280;70853;50.074;10.224;2023-12-14T02:23:52;97571.63;;;3.92
81399;BMP280;70853;50.074;10.224;2023-12-14T02:26:18;97581.38;;;3.97
81399;BMP280;70853;50.074;10.224;2023-12-14T02:28:43;97571.31;;;3.95
81399;BMP280;70853;50.074;10.224;2023-12-14T02:31:09;97578.03;;;3.96
81399;BMP280;70853;50.074;10.224;2023-12-14T02:33:35;97591.44;;;3.98
81399;BMP280;70853;50.074;10.224;2023-12-14T02:36:04;97583.59;;;3.93
81399;BMP280;70853;50.074;10.224;2023-12-14T02:38:38;97584.00;;;3.97
81399;BMP280;70853;50.074;10.224;2023-12-14T02:41:03;97582.81;;;3.98
81399;BMP280;70853;50.074;10.224;2023-12-14T02:43:29;97588.16;;;3.92
81399;BMP280;70853;50.074;10.224;2023-12-14T02:45:54;97586.50;;;3.89
81399;BMP280;70853;50.074;10.224;2023-12-14T02:48:26;97579.75;;;3.94
81399;BMP280;70853;50.074;10.224;2023-12-14T02:50:52;97579.22;;;3.95
81399;BMP280;70853;50.074;10.224;2023-12-14T02:53:17;97584.25;;;3.99
81399;BMP280;70853;50.074;10.224;2023-12-14T02:55:43;97592.00;;;3.91
81399;BMP280;70853;50.074;10.224;2023-12-14T02:58:08;97599.56;;;3.81
81399;BMP280;70853;50.074;10.224;2023-12-14T03:00:34;97599.72;;;3.65
81399;BMP280;70853;50.074;10.224;2023-12-14T03:02:59;97611.69;;;3.66
81399;BMP280;70853;50.074;10.224;2023-12-14T03:05:25;97602.97;;;3.76
81399;BMP280;70853;50.074;10.224;2023-12-14T03:07:51;97612.78;;;3.76
81399;BMP280;70853;50.074;10.224;2023-12-14T03:10:16;97613.22;;;3.80
81399;BMP280;70853;50.074;10.224;2023-12-14T03:12:42;97609.81;;;3.85
81399;BMP280;70853;50.074;10.224;2023-12-14T03:15:07;97612.63;;;3.93
81399;BMP280;70853;50.074;10.224;2023-12-14T03:17:33;97621.63;;;4.03
81399;BMP280;70853;50.074;10.224;2023-12-14T03:19:59;97623.81;;;3.99
81399;BMP280;70853;50.074;10.224;2023-12-14T03:22:24;97626.53;;;3.93
81399;BMP280;70853;50.074;10.224;2023-12-14T03:24:50;97632.22;;;3.97
81399;BMP280;70853;50.074;10.224;2023-12-14T03:27:16;97634.72;;;3.90
81399;BMP280;70853;50.074;10.224;2023-12-14T03:29:42;97634.75;;;3.84
81399;BMP280;70853;50.074;10.224;2023-12-14T03:32:07;97632.78;;;3.90
81399;BMP280;70853;50.074;10.224;2023-12-14T03:34:33;97635.28;;;3.82
81399;BMP280;70853;50.074;10.224;2023-12-14T03:37:01;97642.84;;;3.92
81399;BMP280;70853;50.074;10.224;2023-12-14T03:39:26;97645.19;;;3.95
81399;BMP280;70853;50.074;10.224;2023-12-14T03:41:52;97658.59;;;3.97
81399;BMP280;70853;50.074;10.224;2023-12-14T03:44:18;97651.19;;;3.96
81399;BMP280;70853;50.074;10.224;2023-12-14T03:46:44;97664.75;;;4.05
81399;BMP280;70853;50.074;10.224;2023-12-14T03:49:10;97665.00;;;4.07
81399;BMP280;70853;50.074;10.224;2023-12-14T03:51:36;97670.53;;;4.04
81399;BMP280;70853;50.074;10.224;2023-12-14T03:54:01;97669.56;;;4.07
81399;BMP280;70853;50.074;10.224;2023-12-14T03:56:27;97675.47;;;4.13
81399;BMP280;70853;50.074;10.224;2023-12-14T03:58:53;97666.00;;;4.23
81399;BMP280;70853;50.074;10.224;2023-12-14T04:01:19;97677.63;;;4.14
81399;BMP280;70853;50.074;10.224;2023-12-14T04:03:46;97687.31;;;4.06
81399;BMP280;70853;50.074;10.224;2023-12-14T04:06:14;97690.59;;;3.88
81399;BMP280;70853;50.074;10.224;2023-12-14T04:08:41;97688.81;;;3.96
81399;BMP280;70853;50.074;10.224;2023-12-14T04:11:07;97693.56;;;4.03
81399;BMP280;70853;50.074;10.224;2023-12-14T04:13:33;97705.28;;;4.08
81399;BMP280;70853;50.074;10.224;2023-12-14T04:15:58;97700.34;;;4.17
81399;BMP280;70853;50.074;10.224;2023-12-14T04:18:24;97711.34;;;4.21
81399;BMP280;70853;50.074;10.224;2023-12-14T04:20:50;97707.69;;;4.06
81399;BMP280;70853;50.074;10.224;2023-12-14T04:23:16;97713.84;;;4.14
81399;BMP280;70853;50.074;10.224;2023-12-14T04:25:44;97705.84;;;4.19
81399;BMP280;70853;50.074;10.224;2023-12-14T04:28:10;97713.28;;;4.21
81399;BMP280;70853;50.074;10.224;2023-12-14T04:30:35;97723.13;;;4.20
81399;BMP280;70853;50.074;10.224;2023-12-14T04:33:01;97726.25;;;4.19
81399;BMP280;70853;50.074;10.224;2023-12-14T04:35:26;97726.81;;;4.12
81399;BMP280;70853;50.074;10.224;2023-12-14T04:37:52;97739.84;;;4.04
81399;BMP280;70853;50.074;10.224;2023-12-14T04:40:18;97734.81;;;4.06
81399;BMP280;70853;50.074;10.224;2023-12-14T04:42:44;97736.50;;;4.04
81399;BMP280;70853;50.074;10.224;2023-12-14T04:45:10;97754.03;;;4.01
81399;BMP280;70853;50.074;10.224;2023-12-14T04:47:36;97761.56;;;3.92
81399;BMP280;70853;50.074;10.224;2023-12-14T04:50:03;97762.78;;;3.85
81399;BMP280;70853;50.074;10.224;2023-12-14T04:52:28;97763.25;;;3.89
81399;BMP280;70853;50.074;10.224;2023-12-14T04:54:54;97768.50;;;3.95
81399;BMP280;70853;50.074;10.224;2023-12-14T04:57:19;97762.41;;;4.05
81399;BMP280;70853;50.074;10.224;2023-12-14T04:59:45;97766.25;;;4.04
81399;BMP280;70853;50.074;10.224;2023-12-14T05:02:11;97775.09;;;4.07
81399;BMP280;70853;50.074;10.224;2023-12-14T05:04:39;97779.22;;;4.02
81399;BMP280;70853;50.074;10.224;2023-12-14T05:14:40;97795.84;;;4.16
81399;BMP280;70853;50.074;10.224;2023-12-14T05:17:05;97799.50;;;4.13
81399;BMP280;70853;50.074;10.224;2023-12-14T05:19:32;97794.59;;;3.98
81399;BMP280;70853;50.074;10.224;2023-12-14T05:22:00;97793.84;;;4.03
81399;BMP280;70853;50.074;10.224;2023-12-14T05:24:25;97790.66;;;4.10
81399;BMP280;70853;50.074;10.224;2023-12-14T05:26:51;97803.28;;;4.17
81399;BMP280;70853;50.074;10.224;2023-12-14T05:29:17;97812.91;;;4.15
81399;BMP280;70853;50.074;10.224;2023-12-14T05:31:47;97815.88;;;4.06
81399;BMP280;70853;50.074;10.224;2023-12-14T05:34:13;97822.53;;;4.12
81399;BMP280;70853;50.074;10.224;2023-12-14T05:36:39;97835.56;;;4.05
81399;BMP280;70853;50.074;10.224;2023-12-14T05:39:05;97835.81;;;4.01
81399;BMP280;70853;50.074;10.224;2023-12-14T05:41:31;97830.81;;;3.98
81399;BMP280;70853;50.074;10.224;2023-12-14T05:43:56;97847.81;;;4.02
81399;BMP280;70853;50.074;10.224;2023-12-14T05:46:23;97846.78;;;4.11
81399;BMP280;70853;50.074;10.224;2023-12-14T05:48:50;97855.09;;;4.20
81399;BMP280;70853;50.074;10.224;2023-12-14T05:51:36;97859.88;;;4.22
81399;BMP280;70853;50.074;10.224;2023-12-14T05:54:03;97859.72;;;4.14
81399;BMP280;70853;50.074;10.224;2023-12-14T05:56:29;97852.81;;;4.06
81399;BMP280;70853;50.074;10.224;2023-12-14T05:58:55;97854.28;;;4.01
81399;BMP280;70853;50.074;10.224;2023-12-14T06:01:20;97858.72;;;4.17
81399;BMP280;70853;50.074;10.224;2023-12-14T06:03:46;97864.22;;;4.19
81399;BMP280;70853;50.074;10.224;2023-12-14T06:06:12;97874.28;;;4.21
81399;BMP280;70853;50.074;10.224;2023-12-14T06:08:41;97877.41;;;4.19
81399;BMP280;70853;50.074;10.224;2023-12-14T06:11:07;97880.28;;;4.21
81399;BMP280;70853;50.074;10.224;2023-12-14T06:13:34;97877.41;;;4.19
81399;BMP280;70853;50.074;10.224;2023-12-14T06:16:00;97883.31;;;4.01
81399;BMP280;70853;50.074;10.224;2023-12-14T06:18:25;97893.50;;;4.16
81399;BMP280;70853;50.074;10.224;2023-12-14T06:20:51;97904.16;;;4.05
81399;BMP280;70853;50.074;10.224;2023-12-14T06:23:18;97893.13;;;4.06
81399;BMP280;70853;50.074;10.224;2023-12-14T06:25:43;97908.13;;;4.17
81399;BMP280;70853;50.074;10.224;2023-12-14T06:28:09;97913.16;;;4.20
81399;BMP280;70853;50.074;10.224;2023-12-14T06:30:34;97910.56;;;4.15
81399;BMP280;70853;50.074;10.224;2023-12-14T06:33:00;97917.97;;;4.16
81399;BMP280;70853;50.074;10.224;2023-12-14T06:35:27;97913.16;;;4.20
81399;BMP280;70853;50.074;10.224;2023-12-14T06:37:53;97920.03;;;4.35
81399;BMP280;70853;50.074;10.224;2023-12-14T06:40:19;97915.25;;;4.33
81399;BMP280;70853;50.074;10.224;2023-12-14T06:42:45;97923.25;;;4.16
81399;BMP280;70853;50.074;10.224;2023-12-14T06:45:13;97923.47;;;4.24
81399;BMP280;70853;50.074;10.224;2023-12-14T06:47:39;97911.44;;;4.29
81399;BMP280;70853;50.074;10.224;2023-12-14T06:50:08;97938.94;;;4.39
81399;BMP280;70853;50.074;10.224;2023-12-14T06:52:37;97936.28;;;4.39
81399;BMP280;70853;50.074;10.224;2023-12-14T06:55:03;97953.69;;;4.23
81399;BMP280;70853;50.074;10.224;2023-12-14T06:57:29;97945.50;;;4.32
81399;BMP280;70853;50.074;10.224;2023-12-14T06:59:55;97949.34;;;4.31
81399;BMP280;70853;50.074;10.224;2023-12-14T07:02:21;97960.88;;;4.28
81399;BMP280;70853;50.074;10.224;2023-12-14T07:04:47;97964.72;;;4.27
81399;BMP280;70853;50.074;10.224;2023-12-14T07:07:14;97964.97;;;4.23
81399;BMP280;70853;50.074;10.224;2023-12-14T07:09:40;97975.03;;;4.31
81399;BMP280;70853;50.074;10.224;2023-12-14T07:12:06;97980.56;;;4.27
81399;BMP280;70853;50.074;10.224;2023-12-14T07:14:33;97981.63;;;4.43
81399;BMP280;70853;50.074;10.224;2023-12-14T07:16:59;97992.03;;;4.35
81399;BMP280;70853;50.074;10.224;2023-12-14T07:19:25;97993.16;;;4.40
81399;BMP280;70853;50.074;10.224;2023-12-14T07:21:51;98004.31;;;4.27
81399;BMP280;70853;50.074;10.224;2023-12-14T07:24:17;98000.13;;;4.43
81399;BMP280;70853;50.074;10.224;2023-12-14T07:26:43;97975.97;;;4.33
81399;BMP280;70853;50.074;10.224;2023-12-14T07:29:10;98007.22;;;4.59
81399;BMP280;70853;50.074;10.224;2023-12-14T07:31:36;98012.97;;;4.57
81399;BMP280;70853;50.074;10.224;2023-12-14T07:34:01;98011.53;;;4.56
81399;BMP280;70853;50.074;10.224;2023-12-14T07:36:28;98020.88;;;4.63
81399;BMP280;70853;50.074;10.224;2023-12-14T07:38:55;98012.94;;;4.63
81399;BMP280;70853;50.074;10.224;2023-12-14T07:41:21;98021.22;;;4.78
81399;BMP280;70853;50.074;10.224;2023-12-14T07:43:52;98035.38;;;4.81
81399;BMP280;70853;50.074;10.224;2023-12-14T07:46:18;98033.22;;;4.79
81399;BMP280;70853;50.074;10.224;2023-12-14T07:48:43;98043.50;;;4.88
81399;BMP280;70853;50.074;10.224;2023-12-14T07:51:09;98040.63;;;4.86
81399;BMP280;70853;50.074;10.224;2023-12-14T07:53:35;98035.50;;;4.94
81399;BMP280;70853;50.074;10.224;2023-12-14T07:56:02;98048.91;;;5.02
81399;BMP280;70853;50.074;10.224;2023-12-14T07:58:28;98061.53;;;4.84
81399;BMP280;70853;50.074;10.224;2023-12-14T08:00:53;98071.47;;;4.73
81399;BMP280;70853;50.074;10.224;2023-12-14T08:03:19;98070.94;;;4.80
81399;BMP280;70853;50.074;10.224;2023-12-14T08:05:45;98066.63;;;4.77
81399;BMP280;70853;50.074;10.224;2023-12-14T08:08:11;98064.53;;;4.70
81399;BMP280;70853;50.074;10.224;2023-12-14T08:10:36;98069.50;;;4.79
81399;BMP280;70853;50.074;10.224;2023-12-14T08:13:02;98083.19;;;4.77
81399;BMP280;70853;50.074;10.224;2023-12-14T08:15:28;98078.44;;;4.70
81399;BMP280;70853;50.074;10.224;2023-12-14T08:17:53;98081.63;;;4.63
81399;BMP280;70853;50.074;10.224;2023-12-14T08:20:19;98098.56;;;4.79
81399;BMP280;70853;50.074;10.224;2023-12-14T08:22:45;98087.94;;;4.90
81399;BMP280;70853;50.074;10.224;2023-12-14T08:25:12;98098.88;;;5.00
81399;BMP280;70853;50.074;10.224;2023-12-14T08:27:39;98101.50;;;5.05
81399;BMP280;70853;50.074;10.224;2023-12-14T08:30:06;98107.84;;;5.21
81399;BMP280;70853;50.074;10.224;2023-12-14T08:32:32;98102.34;;;5.19
81399;BMP280;70853;50.074;10.224;2023-12-14T08:34:57;98106.88;;;5.24
81399;BMP280;70853;50.074;10.224;2023-12-14T08:37:23;98119.59;;;5.25
81399;BMP280;70853;50.074;10.224;2023-12-14T08:39:48;98126.50;;;5.34
81399;BMP280;70853;50.074;10.224;2023-12-14T08:42:14;98136.59;;;5.30
81399;BMP280;70853;50.074;10.224;2023-12-14T08:44:40;98144.47;;;5.11
81399;BMP280;70853;50.074;10.224;2023-12-14T08:47:06;98153.06;;;5.17
81399;BMP280;70853;50.074;10.224;2023-12-14T08:49:34;98153.75;;;5.23
81399;BMP280;70853;50.074;10.224;2023-12-14T08:52:01;98154.47;;;5.24
81399;BMP280;70853;50.074;10.224;2023-12-14T08:54:27;98160.41;;;5.30
81399;BMP280;70853;50.074;10.224;2023-12-14T08:56:52;98178.91;;;5.30
81399;BMP280;70853;50.074;10.224;2023-12-14T08:59:18;98189.00;;;5.31
81399;BMP280;70853;50.074;10.224;2023-12-14T09:01:45;98180.34;;;5.31
81399;BMP280;70853;50.074;10.224;2023-12-14T09:04:11;98190.16;;;5.42
81399;BMP280;70853;50.074;10.224;2023-12-14T09:06:38;98172.38;;;5.42
81399;BMP280;70853;50.074;10.224;2023-12-14T09:09:07;98194.13;;;5.54
81399;BMP280;70853;50.074;10.224;2023-12-14T09:11:33;98206.38;;;5.57
81399;BMP280;70853;50.074;10.224;2023-12-14T09:14:02;98210.44;;;5.58
81399;BMP280;70853;50.074;10.224;2023-12-14T09:16:28;98198.44;;;5.57
81399;BMP280;70853;50.074;10.224;2023-12-14T09:18:53;98214.97;;;5.63
81399;BMP280;70853;50.074;10.224;2023-12-14T09:21:19;98215.44;;;5.67
81399;BMP280;70853;50.074;10.224;2023-12-14T09:23:45;98220.47;;;5.71
81399;BMP280;70853;50.074;10.224;2023-12-14T09:26:11;98220.59;;;5.78
81399;BMP280;70853;50.074;10.224;2023-12-14T09:28:37;98227.28;;;5.85
81399;BMP280;70853;50.074;10.224;2023-12-14T09:31:03;98225.06;;;5.89
81399;BMP280;70853;50.074;10.224;2023-12-14T09:33:29;98222.66;;;5.91
81399;BMP280;70853;50.074;10.224;2023-12-14T09:35:55;98223.69;;;5.82
81399;BMP280;70853;50.074;10.224;2023-12-14T09:38:21;98218.38;;;5.88
81399;BMP280;70853;50.074;10.224;2023-12-14T09:40:46;98225.75;;;5.95
81399;BMP280;70853;50.074;10.224;2023-12-14T09:43:13;98231.75;;;5.95
81399;BMP280;70853;50.074;10.224;2023-12-14T09:45:41;98232.97;;;5.94
81399;BMP280;70853;50.074;10.224;2023-12-14T09:48:11;98235.59;;;6.00
81399;BMP280;70853;50.074;10.224;2023-12-14T09:50:39;98233.13;;;6.02
81399;BMP280;70853;50.074;10.224;2023-12-14T09:53:05;98247.25;;;6.10
81399;BMP280;70853;50.074;10.224;2023-12-14T09:55:32;98249.91;;;6.10
81399;BMP280;70853;50.074;10.224;2023-12-14T09:57:58;98259.31;;;6.05
81399;BMP280;70853;50.074;10.224;2023-12-14T10:00:35;98258.06;;;6.12
81399;BMP280;70853;50.074;10.224;2023-12-14T10:03:26;98258.53;;;6.16
81399;BMP280;70853;50.074;10.224;2023-12-14T10:05:57;98256.38;;;6.15
81399;BMP280;70853;50.074;10.224;2023-12-14T10:08:23;98262.56;;;6.17
81399;BMP280;70853;50.074;10.224;2023-12-14T10:10:52;98251.78;;;6.15
81399;BMP280;70853;50.074;10.224;2023-12-14T10:13:35;98262.53;;;6.23
81399;BMP280;70853;50.074;10.224;2023-12-14T10:16:01;98264.63;;;6.30
81399;BMP280;70853;50.074;10.224;2023-12-14T10:18:27;98271.84;;;6.29
81399;BMP280;70853;50.074;10.224;2023-12-14T10:20:54;98265.78;;;6.34
81399;BMP280;70853;50.074;10.224;2023-12-14T10:23:21;98279.00;;;6.34
81399;BMP280;70853;50.074;10.224;2023-12-14T10:25:48;98281.22;;;6.30
81399;BMP280;70853;50.074;10.224;2023-12-14T10:28:14;98279.25;;;6.36
81399;BMP280;70853;50.074;10.224;2023-12-14T10:30:41;98274.66;;;6.37
81399;BMP280;70853;50.074;10.224;2023-12-14T10:33:07;98267.66;;;6.39
81399;BMP280;70853;50.074;10.224;2023-12-14T10:35:32;98287.28;;;6.50
81399;BMP280;70853;50.074;10.224;2023-12-14T10:38:02;98282.06;;;6.63
81399;BMP280;70853;50.074;10.224;2023-12-14T10:40:33;98288.09;;;6.63
81399;BMP280;70853;50.074;10.224;2023-12-14T10:43:00;98280.63;;;6.62
81399;BMP280;70853;50.074;10.224;2023-12-14T10:45:29;98290.41;;;6.54
81399;BMP280;70853;50.074;10.224;2023-12-14T10:48:01;98288.25;;;6.52
81399;BMP280;70853;50.074;10.224;2023-12-14T10:50:30;98288.25;;;6.52
81399;BMP280;70853;50.074;10.224;2023-12-14T10:52:58;98289.56;;;6.59
81399;BMP280;70853;50.074;10.224;2023-12-14T10:55:32;98296.97;;;6.66
81399;BMP280;70853;50.074;10.224;2023-12-14T10:58:00;98262.56;;;6.41
81399;BMP280;70853;50.074;10.224;2023-12-14T11:00:26;98300.50;;;6.74
81399;BMP280;70853;50.074;10.224;2023-12-14T11:02:52;98301.47;;;6.52
81399;BMP280;70853;50.074;10.224;2023-12-14T11:05:18;98296.91;;;6.53
81399;BMP280;70853;50.074;10.224;2023-12-14T11:08:10;98311.00;;;6.61
81399;BMP280;70853;50.074;10.224;2023-12-14T11:10:42;98314.59;;;6.63
81399;BMP280;70853;50.074;10.224;2023-12-14T11:13:10;98312.75;;;6.77
81399;BMP280;70853;50.074;10.224;2023-12-14T11:15:39;98320.97;;;6.73
81399;BMP280;70853;50.074;10.224;2023-12-14T11:18:26;98319.06;;;6.74
81399;BMP280;70853;50.074;10.224;2023-12-14T11:20:53;98323.81;;;6.81
81399;BMP280;70853;50.074;10.224;2023-12-14T11:23:26;98330.41;;;6.93
81399;BMP280;70853;50.074;10.224;2023-12-14T11:26:02;98331.63;;;6.92
81399;BMP280;70853;50.074;10.224;2023-12-14T11:28:40;98335.78;;;7.06
81399;BMP280;70853;50.074;10.224;2023-12-14T11:31:12;98348.34;;;7.06
81399;BMP280;70853;50.074;10.224;2023-12-14T11:33:38;98343.66;;;7.12
81399;BMP280;70853;50.074;10.224;2023-12-14T11:36:05;98347.75;;;6.94
81399;BMP280;70853;50.074;10.224;2023-12-14T11:38:31;98343.88;;;6.95
81399;BMP280;70853;50.074;10.224;2023-12-14T11:41:01;98355.69;;;6.94
81399;BMP280;70853;50.074;10.224;2023-12-14T11:43:27;98353.31;;;6.91
81399;BMP280;70853;50.074;10.224;2023-12-14T11:45:53;98360.44;;;7.01
81399;BMP280;70853;50.074;10.224;2023-12-14T11:48:21;98366.22;;;7.00
81399;BMP280;70853;50.074;10.224;2023-12-14T11:50:47;98365.47;;;7.05
81399;BMP280;70853;50.074;10.224;2023-12-14T11:53:13;98364.97;;;7.06
81399;BMP280;70853;50.074;10.224;2023-12-14T11:55:40;98363.09;;;7.01
81399;BMP280;70853;50.074;10.224;2023-12-14T11:58:07;98377.72;;;7.08
81399;BMP280;70853;50.074;10.224;2023-12-14T12:00:34;98370.53;;;7.03
81399;BMP280;70853;50.074;10.224;2023-12-14T12:03:10;98372.44;;;7.08
81399;BMP280;70853;50.074;10.224;2023-12-14T12:05:42;98380.88;;;7.06
81399;BMP280;70853;50.074;10.224;2023-12-14T12:08:09;98374.38;;;7.07
81399;BMP280;70853;50.074;10.224;2023-12-14T12:10:36;98383.31;;;7.04
81399;BMP280;70853;50.074;10.224;2023-12-14T12:13:05;98377.72;;;7.08
81399;BMP280;70853;50.074;10.224;2023-12-14T12:15:32;98385.88;;;7.10
81399;BMP280;70853;50.074;10.224;2023-12-14T12:18:11;98383.31;;;7.04
81399;BMP280;70853;50.074;10.224;2023-12-14T12:20:37;98383.72;;;7.08
81399;BMP280;70853;50.074;10.224;2023-12-14T12:23:03;98378.84;;;7.12
81399;BMP280;70853;50.074;10.224;2023-12-14T12:25:33;98381.88;;;7.03
81399;BMP280;70853;50.074;10.224;2023-12-14T12:28:00;98391.50;;;7.06
81399;BMP280;70853;50.074;10.224;2023-12-14T12:30:27;98389.84;;;7.03
81399;BMP280;70853;50.074;10.224;2023-12-14T12:32:53;98399.00;;;7.02
81399;BMP280;70853;50.074;10.224;2023-12-14T12:35:20;98399.22;;;7.04
81399;BMP280;70853;50.074;10.224;2023-12-14T12:37:46;98397.28;;;7.05
81399;BMP280;70853;50.074;10.224;2023-12-14T12:40:12;98400.06;;;7.12
81399;BMP280;70853;50.074;10.224;2023-12-14T12:42:40;98398.63;;;7.11
81399;BMP280;70853;50.074;10.224;2023-12-14T12:45:06;98399.88;;;7.10
81399;BMP280;70853;50.074;10.224;2023-12-14T12:47:32;98406.75;;;7.19
81399;BMP280;70853;50.074;10.224;2023-12-14T12:49:58;98400.59;;;7.30
81399;BMP280;70853;50.074;10.224;2023-12-14T12:52:24;98402.47;;;7.67
81399;BMP280;70853;50.074;10.224;2023-12-14T12:54:49;98406.34;;;7.84
81399;BMP280;70853;50.074;10.224;2023-12-14T12:57:16;98404.13;;;8.02
81399;BMP280;70853;50.074;10.224;2023-12-14T12:59:42;98406.78;;;8.02
81399;BMP280;70853;50.074;10.224;2023-12-14T13:02:07;98408.34;;;7.78
81399;BMP280;70853;50.074;10.224;2023-12-14T13:04:33;98409.59;;;7.77
81399;BMP280;70853;50.074;10.224;2023-12-14T13:06:59;98409.34;;;7.62
81399;BMP280;70853;50.074;10.224;2023-12-14T13:09:27;98422.88;;;7.58
81399;BMP280;70853;50.074;10.224;2023-12-14T13:11:53;98431.13;;;7.55
81399;BMP280;70853;50.074;10.224;2023-12-14T13:14:18;98434.94;;;7.41
81399;BMP280;70853;50.074;10.224;2023-12-14T13:16:44;98444.50;;;7.31
81399;BMP280;70853;50.074;10.224;2023-12-14T13:19:10;98443.06;;;7.30
81399;BMP280;70853;50.074;10.224;2023-12-14T13:21:36;98442.47;;;7.37
81399;BMP280;70853;50.074;10.224;2023-12-14T13:24:02;98453.44;;;7.28
81399;BMP280;70853;50.074;10.224;2023-12-14T13:26:28;98456.59;;;7.26
81399;BMP280;70853;50.074;10.224;2023-12-14T13:28:54;98455.41;;;7.21
81399;BMP280;70853;50.074;10.224;2023-12-14T13:31:20;98461.94;;;7.20
81399;BMP280;70853;50.074;10.224;2023-12-14T13:33:47;98462.50;;;7.13
81399;BMP280;70853;50.074;10.224;2023-12-14T13:36:13;98472.63;;;7.15
81399;BMP280;70853;50.074;10.224;2023-12-14T13:38:40;98472.03;;;7.03
81399;BMP280;70853;50.074;10.224;2023-12-14T13:41:07;98479.06;;;7.01
81399;BMP280;70853;50.074;10.224;2023-12-14T13:43:33;98481.47;;;6.99
81399;BMP280;70853;50.074;10.224;2023-12-14T13:45:59;98489.72;;;6.95
81399;BMP280;70853;50.074;10.224;2023-12-14T13:48:26;98490.94;;;6.94
81399;BMP280;70853;50.074;10.224;2023-12-14T13:50:53;98494.09;;;6.93
81399;BMP280;70853;50.074;10.224;2023-12-14T13:53:19;98498.66;;;6.92
81399;BMP280;70853;50.074;10.224;2023-12-14T13:55:45;98499.41;;;6.87
81399;BMP280;70853;50.074;10.224;2023-12-14T13:58:12;98513.88;;;6.86
81399;BMP280;70853;50.074;10.224;2023-12-14T14:00:38;98518.97;;;6.84
81399;BMP280;70853;50.074;10.224;2023-12-14T14:03:05;98499.81;;;6.72
81399;BMP280;70853;50.074;10.224;2023-12-14T14:05:32;98533.66;;;6.85
81399;BMP280;70853;50.074;10.224;2023-12-14T14:07:58;98526.28;;;6.78
81399;BMP280;70853;50.074;10.224;2023-12-14T14:10:24;98539.28;;;6.81
81399;BMP280;70853;50.074;10.224;2023-12-14T14:12:52;98538.59;;;6.75